Flight Track Log - Related Links

Times and Time Zones

All times are in EDT time to prevent confusion due to time zone crossing. See the SKW316H flight status page for this flight to view local times or setup timezone preferences in your user account.

Time Position Orientation Groundspeed Altitude Reporting Facility
EDT Latitude Longitude Course Direction KTS MPH feet Rate Location/Type
Wed 12:44:26 PM 29.9928 -95.3614 332° Northwest 146 168 900  Level Houston Center
Wed 12:45:15 PM 30.0261 -95.3817 332° Northwest 224 258 2,600 1,879 Climbing Houston Center
Wed 12:46:05 PM 30.0797 -95.3747 North 243 280 4,000 1,875 Climbing Houston Center
Wed 12:47:07 PM 30.1542 -95.3794 357° North 265 305 6,100 2,687 Climbing Houston Center
Wed 12:48:19 PM 30.2547 -95.4025 349° North 285 328 10,000 2,400 Climbing Houston Center
Wed 12:49:12 PM 30.3125 -95.4175 347° North 296 341 11,100 1,670 Climbing Houston Center
Wed 12:50:14 PM 30.4300 -95.4481 347° North 358 412 13,200 2,032 Climbing Houston Center
Wed 12:51:16 PM 30.5317 -95.4731 348° North 374 430 15,300 1,935 Climbing Houston Center
Wed 12:52:18 PM 30.6350 -95.4981 348° North 379 436 17,200 1,887 Climbing Houston Center
Wed 12:53:20 PM 30.7486 -95.5239 349° North 384 442 19,200 1,887 Climbing Houston Center
Wed 12:54:22 PM 30.8558 -95.5486 349° North 389 448 21,100 1,694 Climbing Houston Center
Wed 12:55:24 PM 30.9639 -95.5714 350° North 392 451 22,700 1,488 Climbing Houston Center
Wed 12:56:27 PM 31.0739 -95.5981 348° North 401 461 24,200 1,440 Climbing Houston Center
Wed 12:57:29 PM 31.1869 -95.6231 349° North 409 471 25,700 871 Climbing Houston Center
Wed 12:58:31 PM 31.3264 -95.6553 349° North 421 484 26,000 145 Climbing Houston Center
Wed 12:59:33 PM 31.4347 -95.7133 335° Northwest 424 488 26,000 -484 Level Houston Center
Wed 01:00:35 PM 31.5383 -95.7825 330° Northwest 426 490 25,000 -1,500 Descending Houston Center
Wed 01:01:37 PM 31.6386 -95.8469 331° Northwest 413 475 22,900 -1,918 Descending Houston Center
Wed 01:02:12 PM 31.6906 -95.8825 330° Northwest 405 466 21,900 -2,147 Descending Fort Worth Center
Wed 01:03:12 PM 31.7914 -95.9517 330° Northwest 387 445 19,500 -2,200 Descending Fort Worth Center
Wed 01:04:12 PM 31.8778 -96.0092 331° Northwest 368 423 17,500 -1,900 Descending Fort Worth Center
Wed 01:05:12 PM 31.9556 -96.0642 329° Northwest 362 417 15,700 -1,950 Descending Fort Worth Center
Wed 01:06:12 PM 32.0419 -96.1217 331° Northwest 362 417 13,600 -2,100 Descending Fort Worth Center
Wed 01:07:12 PM 32.1217 -96.1747 331° Northwest 353 406 11,500 -1,600 Descending Fort Worth Center
Wed 01:08:12 PM 32.2014 -96.2275 331° Northwest 329 379 10,400 -1,150 Descending Fort Worth Center
Wed 01:09:12 PM 32.2792 -96.2756 332° Northwest 290 334 9,200 -650 Descending Fort Worth Center
Wed 01:10:12 PM 32.3483 -96.3167 333° Northwest 290 334 9,100 -50 Descending Fort Worth Center
Wed 01:11:12 PM 32.4197 -96.3600 333° Northwest 290 334 9,100  Level Fort Worth Center
Wed 01:12:12 PM 32.4892 -96.4011 333° Northwest 290 334 9,100 -350 Level Fort Worth Center
Wed 01:13:12 PM 32.5583 -96.4447 332° Northwest 285 328 8,400 -900 Descending Fort Worth Center
Wed 01:14:12 PM 32.6294 -96.4858 334° Northwest 285 328 7,300 -1,100 Descending Fort Worth Center
Wed 01:15:12 PM 32.6947 -96.5322 329° Northwest 285 328 6,200 -1,100 Descending Fort Worth Center
Wed 01:16:12 PM 32.7556 -96.5858 323° Northwest 279 321 5,100 -550 Descending Fort Worth Center
Wed 01:17:12 PM 32.8144 -96.6422 321° Northwest 271 312 5,100  Level Fort Worth Center
Wed 01:18:12 PM 32.8731 -96.6961 322° Northwest 271 312 5,100  Level Fort Worth Center
Wed 01:19:12 PM 32.9111 -96.7625 304° West 248 285 5,100 -650 Level Fort Worth Center
Wed 01:20:12 PM 32.9364 -96.8219 297° West 223 257 3,800 -1,450 Descending Fort Worth Center
Wed 01:21:12 PM 32.9283 -96.8886 262° West 200 230 2,200 -950 Descending Fort Worth Center
Wed 01:22:12 PM 32.8969 -96.9014 199° South 147 169 1,900 -300 Descending Fort Worth Center
Wed 01:24:00 PM 32.8471 -96.8518 161° South  Level Estimated
Wed 01:31:00 PM 32.8471 -96.8518 161° South  Level Estimated

Login

Don't have an account? Register now (free) for customized features, flight alerts, and more!